createdAt,value
2022-08-03T00:02:21.120Z,13.02
2022-08-03T00:04:49.788Z,13.65
2022-08-03T00:07:18.684Z,12.98
2022-08-03T00:09:48.880Z,13.48
2022-08-03T00:12:18.175Z,13.52
2022-08-03T00:14:46.964Z,13.35
2022-08-03T00:17:15.726Z,12.90
2022-08-03T00:19:44.404Z,13.13
2022-08-03T00:22:13.043Z,12.95
2022-08-03T00:24:41.815Z,12.90
2022-08-03T00:27:11.703Z,13.13
2022-08-03T00:29:59.912Z,14.15
2022-08-03T00:32:29.051Z,13.88
2022-08-03T00:34:59.089Z,13.55
2022-08-03T00:37:40.789Z,12.90
2022-08-03T00:40:13.513Z,13.68
2022-08-03T00:42:55.837Z,13.85
2022-08-03T00:45:27.581Z,13.82
2022-08-03T00:47:57.060Z,13.98
2022-08-03T00:50:28.667Z,13.82
2022-08-03T00:52:59.595Z,14.45
2022-08-03T00:55:28.964Z,15.20
2022-08-03T00:57:59.787Z,14.38
2022-08-03T01:00:29.823Z,12.52
2022-08-03T01:02:58.474Z,11.43
2022-08-03T01:05:27.159Z,11.23
2022-08-03T01:08:07.011Z,10.85
2022-08-03T01:10:50.016Z,13.90
2022-08-03T01:14:01.604Z,14.73
2022-08-03T01:16:27.965Z,14.90
2022-08-03T01:19:31.243Z,14.30
2022-08-03T01:22:19.109Z,14.15
2022-08-03T01:25:02.399Z,13.50
2022-08-03T01:27:47.740Z,13.70
2022-08-03T01:30:18.184Z,13.23
2022-08-03T01:33:00.952Z,15.00
2022-08-03T01:35:39.277Z,14.75
2022-08-03T01:38:13.288Z,15.15
2022-08-03T01:40:45.496Z,15.23
2022-08-03T01:43:58.887Z,15.30
2022-08-03T01:46:12.700Z,15.48
2022-08-03T01:48:45.908Z,14.40
2022-08-03T01:51:19.362Z,14.75
2022-08-03T01:53:51.114Z,15.25
2022-08-03T01:56:23.244Z,14.68
2022-08-03T01:58:55.292Z,15.13
2022-08-03T02:01:28.250Z,14.40
2022-08-03T02:04:20.482Z,13.25
2022-08-03T02:06:59.910Z,11.90
2022-08-03T02:09:32.654Z,14.85
2022-08-03T02:12:02.646Z,14.27
2022-08-03T02:14:32.797Z,14.68
2022-08-03T02:17:04.238Z,15.50
2022-08-03T02:19:35.869Z,15.90
2022-08-03T02:22:06.679Z,15.10
2022-08-03T02:24:35.511Z,15.20
2022-08-03T02:27:11.652Z,14.63
2022-08-03T02:29:43.532Z,14.52
2022-08-03T02:32:21.479Z,14.85
2022-08-03T02:34:55.853Z,14.77
2022-08-03T02:37:31.951Z,14.68
2022-08-03T02:40:05.544Z,15.02
2022-08-03T02:42:37.031Z,14.82
2022-08-03T02:45:13.963Z,15.57
2022-08-03T02:47:53.387Z,15.80
2022-08-03T02:50:26.274Z,15.40
2022-08-03T02:52:58.137Z,15.05
2022-08-03T02:55:28.368Z,14.55
2022-08-03T02:58:01.445Z,15.15
2022-08-03T03:00:32.892Z,15.35
2022-08-03T03:03:05.378Z,15.90
2022-08-03T03:05:52.835Z,14.60
2022-08-03T03:08:28.929Z,15.65
2022-08-03T03:11:00.500Z,14.60
2022-08-03T03:13:31.380Z,14.77
2022-08-03T03:16:04.286Z,14.90
2022-08-03T03:18:35.815Z,15.50
2022-08-03T03:21:06.667Z,15.73
2022-08-03T03:23:39.483Z,15.13
2022-08-03T03:26:09.238Z,14.23
2022-08-03T03:28:38.596Z,13.38
2022-08-03T03:31:09.109Z,14.38
2022-08-03T03:33:40.477Z,15.25
2022-08-03T03:36:09.570Z,14.60
2022-08-03T03:38:38.581Z,15.20
2022-08-03T03:41:07.621Z,15.25
2022-08-03T03:43:36.607Z,15.45
2022-08-03T03:46:06.110Z,14.25
2022-08-03T03:48:35.379Z,14.77
2022-08-03T03:51:07.286Z,14.25
2022-08-03T03:53:36.733Z,12.07
2022-08-03T03:56:05.844Z,10.40
2022-08-03T03:58:34.586Z,11.23
2022-08-03T04:01:03.410Z,11.18
2022-08-03T04:03:32.102Z,12.15
2022-08-03T04:06:18.225Z,13.35
2022-08-03T04:09:14.269Z,13.30
2022-08-03T04:11:49.987Z,13.27
2022-08-03T04:14:24.158Z,13.40
2022-08-03T04:16:58.339Z,12.68
2022-08-03T04:19:36.915Z,11.38
2022-08-03T04:22:12.401Z,13.10
2022-08-03T04:24:50.784Z,13.90
2022-08-03T04:27:26.692Z,15.10
2022-08-03T04:29:58.758Z,10.38
2022-08-03T04:32:30.271Z,12.35
2022-08-03T04:34:59.404Z,13.27
2022-08-03T04:37:39.520Z,13.20
2022-08-03T04:40:15.609Z,11.82
2022-08-03T04:42:45.720Z,12.10
2022-08-03T04:45:17.144Z,14.13
2022-08-03T04:47:46.435Z,13.43
2022-08-03T04:50:19.505Z,12.45
2022-08-03T04:53:07.798Z,13.60
2022-08-03T04:55:37.786Z,12.82
2022-08-03T04:58:07.248Z,13.35
2022-08-03T05:00:37.423Z,13.40
2022-08-03T05:03:20.048Z,12.77
2022-08-03T05:06:10.040Z,9.75
2022-08-03T05:08:47.170Z,12.75
2022-08-03T05:11:19.655Z,13.10
2022-08-03T05:13:49.215Z,13.77
2022-08-03T05:16:18.049Z,12.45
2022-08-03T05:18:47.077Z,12.75
2022-08-03T05:21:16.911Z,11.32
2022-08-03T05:23:45.777Z,11.68
2022-08-03T05:26:14.615Z,12.88
2022-08-03T05:28:50.561Z,12.35
2022-08-03T05:31:20.756Z,14.38
2022-08-03T05:33:49.652Z,13.68
2022-08-03T05:36:18.300Z,13.10
2022-08-03T05:38:47.115Z,16.15
2022-08-03T05:41:22.229Z,17.25
2022-08-03T05:43:56.038Z,17.55
2022-08-03T05:46:24.893Z,12.82
2022-08-03T05:48:54.009Z,13.23
2022-08-03T05:51:22.735Z,13.32
2022-08-03T05:53:51.285Z,16.50
2022-08-03T05:56:25.160Z,15.77
2022-08-03T05:58:55.253Z,13.65
2022-08-03T06:01:24.153Z,11.57
2022-08-03T06:03:53.754Z,12.73
2022-08-03T06:06:23.099Z,11.82
2022-08-03T06:08:52.065Z,11.73
2022-08-03T06:11:20.596Z,18.00
2022-08-03T06:13:49.177Z,16.67
2022-08-03T06:16:19.289Z,16.83
2022-08-03T06:18:47.912Z,18.63
2022-08-03T06:21:17.130Z,17.73
2022-08-03T06:23:54.193Z,18.15
2022-08-03T06:26:28.911Z,14.65
2022-08-03T06:28:58.002Z,14.52
2022-08-03T06:31:33.334Z,15.15
2022-08-03T06:34:32.872Z,18.38
2022-08-03T06:37:01.769Z,19.15
2022-08-03T06:39:31.487Z,17.95
2022-08-03T06:42:00.175Z,17.92
2022-08-03T06:44:28.784Z,17.92
2022-08-03T06:46:58.994Z,18.63
2022-08-03T06:49:27.847Z,18.50
2022-08-03T06:52:04.538Z,18.63
2022-08-03T06:54:37.097Z,16.98
2022-08-03T06:57:08.359Z,18.70
2022-08-03T07:00:10.006Z,18.05
2022-08-03T07:02:28.218Z,17.13
2022-08-03T07:04:58.648Z,12.05
2022-08-03T07:07:27.366Z,15.40
2022-08-03T07:09:57.819Z,15.13
2022-08-03T07:12:29.455Z,15.15
2022-08-03T07:15:02.342Z,15.73
2022-08-03T07:17:36.774Z,13.50
2022-08-03T07:20:08.691Z,14.60
2022-08-03T07:22:37.955Z,13.45
2022-08-03T07:25:08.969Z,13.05
2022-08-03T07:27:38.474Z,14.27
2022-08-03T07:30:09.512Z,11.38
2022-08-03T07:32:49.744Z,13.80
2022-08-03T07:35:24.795Z,15.10
2022-08-03T07:37:55.136Z,13.45
2022-08-03T07:40:25.117Z,11.15
2022-08-03T07:43:02.402Z,9.45
2022-08-03T07:45:32.058Z,14.38
2022-08-03T07:48:02.278Z,11.05
2022-08-03T07:50:31.172Z,9.43
2022-08-03T07:52:59.907Z,10.80
2022-08-03T07:55:28.814Z,7.43
2022-08-03T07:58:07.657Z,9.10
2022-08-03T08:00:37.183Z,8.95
2022-08-03T08:03:07.185Z,9.60
2022-08-03T08:05:35.952Z,7.70
2022-08-03T08:08:05.887Z,6.13
2022-08-03T08:10:35.142Z,7.00
2022-08-03T08:13:04.182Z,5.63
2022-08-03T08:15:33.137Z,6.00
2022-08-03T08:18:03.491Z,4.50
2022-08-03T08:20:38.145Z,5.72
2022-08-03T08:23:42.884Z,4.30
2022-08-03T08:25:58.613Z,4.60
2022-08-03T08:28:32.907Z,5.00
2022-08-03T08:31:02.708Z,4.53
2022-08-03T08:33:48.326Z,5.60
2022-08-03T08:36:22.831Z,4.35
2022-08-03T08:38:51.816Z,4.05
2022-08-03T08:41:20.592Z,4.45
2022-08-03T08:43:49.241Z,5.25
2022-08-03T08:46:23.795Z,5.05
2022-08-03T08:48:55.368Z,5.47
2022-08-03T08:51:54.847Z,6.10
2022-08-03T08:54:24.835Z,6.35
2022-08-03T08:56:59.325Z,6.53
2022-08-03T08:59:48.346Z,6.30
2022-08-03T09:02:17.220Z,5.38
2022-08-03T09:04:48.836Z,6.03
2022-08-03T09:07:20.545Z,4.82
2022-08-03T09:10:11.368Z,5.70
2022-08-03T09:12:42.611Z,5.30
2022-08-03T09:15:24.550Z,4.55
2022-08-03T09:17:56.499Z,3.15
2022-08-03T09:20:28.671Z,3.75
2022-08-03T09:23:01.466Z,3.90
2022-08-03T09:25:33.560Z,3.60
2022-08-03T09:28:52.874Z,3.90
2022-08-03T09:31:03.156Z,3.88
2022-08-03T09:33:36.145Z,4.25
2022-08-03T09:36:05.668Z,3.97
2022-08-03T09:38:35.893Z,3.50
2022-08-03T09:41:18.248Z,3.83
2022-08-03T09:43:48.175Z,3.70
2022-08-03T09:46:16.869Z,3.60
2022-08-03T09:48:46.027Z,3.60
2022-08-03T09:52:31.285Z,3.53
2022-08-03T09:54:12.651Z,3.28
2022-08-03T09:56:47.670Z,3.38
2022-08-03T09:59:27.573Z,3.53
2022-08-03T10:01:58.095Z,3.50
2022-08-03T10:04:27.935Z,3.22
2022-08-03T10:07:06.493Z,3.33
2022-08-03T10:09:37.556Z,3.47
2022-08-03T10:12:11.375Z,2.92
2022-08-03T10:14:41.975Z,3.90
2022-08-03T10:17:11.244Z,3.60
2022-08-03T10:19:41.130Z,3.50
2022-08-03T10:22:15.065Z,4.07
2022-08-03T10:24:54.773Z,3.58
2022-08-03T10:27:25.480Z,3.72
2022-08-03T10:29:57.318Z,3.35
2022-08-03T10:32:32.669Z,3.75
2022-08-03T10:35:20.096Z,3.33
2022-08-03T10:37:57.302Z,3.90
2022-08-03T10:40:48.627Z,3.22
2022-08-03T10:43:23.018Z,3.60
2022-08-03T10:45:53.148Z,3.70
2022-08-03T10:48:23.211Z,3.13
2022-08-03T10:50:52.702Z,4.00
2022-08-03T10:53:37.462Z,3.83
2022-08-03T10:56:50.403Z,4.00
2022-08-03T10:59:27.704Z,4.30
2022-08-03T11:02:00.676Z,4.10
2022-08-03T11:04:30.878Z,4.32
2022-08-03T11:07:23.604Z,4.30
2022-08-03T11:09:54.851Z,4.28
2022-08-03T11:12:31.081Z,4.03
2022-08-03T11:15:03.235Z,4.30
2022-08-03T11:17:33.792Z,4.20
2022-08-03T11:20:15.899Z,3.53
2022-08-03T11:22:54.505Z,4.25
2022-08-03T11:25:54.403Z,3.70
2022-08-03T11:28:30.615Z,3.72
2022-08-03T11:31:50.392Z,3.35
2022-08-03T11:34:19.830Z,4.30
2022-08-03T11:37:29.929Z,4.00
2022-08-03T11:40:02.758Z,4.22
2022-08-03T11:42:47.054Z,4.28
2022-08-03T11:45:16.254Z,4.30
2022-08-03T11:47:51.092Z,4.43
2022-08-03T11:50:21.470Z,4.40
2022-08-03T11:52:51.777Z,4.60
2022-08-03T11:55:22.175Z,4.38
2022-08-03T11:59:10.904Z,4.60
2022-08-03T12:00:40.638Z,4.70
2022-08-03T12:03:16.294Z,4.60
2022-08-03T12:05:51.536Z,5.00
2022-08-03T12:08:34.072Z,4.93
2022-08-03T12:11:06.820Z,4.80
2022-08-03T12:14:44.209Z,4.50
2022-08-03T12:16:30.558Z,4.22
2022-08-03T12:19:03.157Z,4.90
2022-08-03T12:21:32.288Z,4.70
2022-08-03T12:24:03.454Z,4.65
2022-08-03T12:26:54.531Z,4.35
2022-08-03T12:29:29.200Z,4.22
2022-08-03T12:31:58.402Z,5.60
2022-08-03T12:34:47.619Z,5.18
2022-08-03T12:37:28.665Z,4.50
2022-08-03T12:40:09.763Z,4.93
2022-08-03T12:42:41.342Z,5.60
2022-08-03T12:45:24.647Z,4.50
2022-08-03T12:47:55.627Z,4.85
2022-08-03T12:50:34.302Z,4.28
2022-08-03T12:53:07.873Z,4.43
2022-08-03T12:55:57.954Z,4.65
2022-08-03T12:58:34.331Z,4.70
2022-08-03T13:01:10.102Z,4.60
2022-08-03T13:03:46.045Z,4.32
2022-08-03T13:06:23.770Z,4.80
2022-08-03T13:09:05.855Z,4.70
2022-08-03T13:11:55.479Z,4.30
2022-08-03T13:14:24.133Z,4.55
2022-08-03T13:16:52.795Z,4.47
2022-08-03T13:19:21.367Z,5.22
2022-08-03T13:21:53.689Z,5.03
2022-08-03T13:24:33.969Z,4.65
2022-08-03T13:28:01.908Z,5.07
2022-08-03T13:29:54.236Z,5.03
2022-08-03T13:32:24.235Z,4.43
2022-08-03T13:34:53.027Z,4.40
2022-08-03T13:37:23.512Z,5.03
2022-08-03T13:39:59.246Z,5.25
2022-08-03T13:42:31.580Z,4.88
2022-08-03T13:45:01.959Z,4.38
2022-08-03T13:47:30.912Z,4.80
2022-08-03T13:50:02.457Z,5.05
2022-08-03T13:52:36.450Z,4.90
2022-08-03T13:55:08.597Z,4.20
2022-08-03T13:58:04.906Z,4.47
2022-08-03T14:00:29.330Z,4.57
2022-08-03T14:03:06.514Z,4.70
2022-08-03T14:05:41.145Z,5.05
2022-08-03T14:08:11.880Z,4.72
2022-08-03T14:10:43.836Z,4.80
2022-08-03T14:13:17.698Z,4.65
2022-08-03T14:15:49.471Z,4.55
2022-08-03T14:18:28.492Z,5.00
2022-08-03T14:21:03.392Z,5.10
2022-08-03T14:23:37.728Z,4.93
2022-08-03T14:26:07.766Z,4.60
2022-08-03T14:28:37.194Z,5.30
2022-08-03T14:31:08.462Z,4.93
2022-08-03T14:33:55.166Z,4.97
2022-08-03T14:36:23.863Z,5.05
2022-08-03T14:38:56.119Z,4.93
2022-08-03T14:41:27.444Z,4.57
2022-08-03T14:44:02.132Z,5.32
2022-08-03T14:46:32.521Z,5.40
2022-08-03T14:50:30.564Z,5.25
2022-08-03T14:51:53.329Z,5.22
2022-08-03T14:54:24.178Z,5.38
2022-08-03T14:56:53.301Z,5.63
2022-08-03T14:59:21.887Z,5.13
2022-08-03T15:02:04.950Z,4.60
2022-08-03T15:04:35.882Z,5.15
2022-08-03T15:07:04.698Z,4.82
2022-08-03T15:09:35.554Z,4.60
2022-08-03T15:12:05.500Z,5.30
2022-08-03T15:14:34.952Z,5.20
2022-08-03T15:17:06.996Z,5.40
2022-08-03T15:20:00.847Z,5.30
2022-08-03T15:22:25.008Z,5.10
2022-08-03T15:24:56.294Z,5.72
2022-08-03T15:27:24.999Z,5.30
2022-08-03T15:30:04.859Z,4.93
2022-08-03T15:32:38.384Z,4.88
2022-08-03T15:35:07.794Z,4.45
2022-08-03T15:37:36.456Z,4.95
2022-08-03T15:40:08.106Z,5.63
2022-08-03T15:42:36.866Z,5.40
2022-08-03T15:45:06.442Z,4.95
2022-08-03T15:47:35.043Z,4.80
2022-08-03T15:50:09.472Z,5.20
2022-08-03T15:52:38.485Z,4.63
2022-08-03T15:55:10.615Z,4.40
2022-08-03T15:59:11.070Z,4.78
2022-08-03T16:00:34.023Z,5.07
2022-08-03T16:03:02.899Z,4.63
2022-08-03T16:05:31.637Z,4.20
2022-08-03T16:08:04.082Z,5.20
2022-08-03T16:10:35.561Z,4.93
2022-08-03T16:13:04.420Z,5.30
2022-08-03T16:15:33.301Z,4.78
2022-08-03T16:18:07.607Z,4.95
2022-08-03T16:20:36.230Z,4.75
2022-08-03T16:23:11.427Z,5.07
2022-08-03T16:25:44.485Z,4.78
2022-08-03T16:28:18.913Z,4.78
2022-08-03T16:30:48.342Z,4.97
2022-08-03T16:33:18.098Z,5.40
2022-08-03T16:35:49.627Z,5.05
2022-08-03T16:38:19.554Z,4.75
2022-08-03T16:40:51.965Z,4.85
2022-08-03T16:43:23.147Z,4.90
2022-08-03T16:45:52.801Z,4.60
2022-08-03T16:48:21.915Z,5.20
2022-08-03T16:50:50.587Z,4.95
2022-08-03T16:53:33.721Z,5.38
2022-08-03T16:56:10.865Z,4.90
2022-08-03T16:58:42.314Z,5.30
2022-08-03T17:01:22.477Z,4.93
2022-08-03T17:04:01.532Z,5.40
2022-08-03T17:06:34.125Z,4.70
2022-08-03T17:09:08.699Z,4.80
2022-08-03T17:11:44.117Z,5.05
2022-08-03T17:14:21.781Z,5.55
2022-08-03T17:16:54.540Z,5.50
2022-08-03T17:19:26.363Z,5.55
2022-08-03T17:22:04.116Z,4.97
2022-08-03T17:24:41.016Z,5.22
2022-08-03T17:28:41.354Z,5.38
2022-08-03T17:30:12.029Z,5.43
2022-08-03T17:32:56.545Z,5.80
2022-08-03T17:35:34.684Z,5.20
2022-08-03T17:38:11.975Z,5.22
2022-08-03T17:40:43.099Z,5.68
2022-08-03T17:44:13.678Z,5.72
2022-08-03T17:46:10.978Z,5.20
2022-08-03T17:48:42.256Z,5.43
2022-08-03T17:51:17.953Z,5.10
2022-08-03T17:54:05.203Z,5.53
2022-08-03T17:56:58.245Z,5.28
2022-08-03T17:59:51.890Z,5.38
2022-08-03T18:02:54.868Z,6.07
2022-08-03T18:06:12.713Z,5.18
2022-08-03T18:08:26.857Z,5.50
2022-08-03T18:11:15.115Z,5.68
2022-08-03T18:13:58.183Z,5.97
2022-08-03T18:16:35.292Z,5.70
2022-08-03T18:19:13.477Z,5.78
2022-08-03T18:22:02.844Z,6.25
2022-08-03T18:24:33.213Z,5.70
2022-08-03T18:27:03.301Z,6.28
2022-08-03T18:29:33.291Z,6.38
2022-08-03T18:32:13.550Z,7.03
2022-08-03T18:34:53.188Z,6.97
2022-08-03T18:37:26.211Z,7.13
2022-08-03T18:39:58.498Z,6.70
2022-08-03T18:42:28.854Z,6.82
2022-08-03T18:45:15.010Z,6.60
2022-08-03T18:48:06.152Z,6.78
2022-08-03T18:50:49.745Z,6.47
2022-08-03T18:54:03.049Z,6.53
2022-08-03T18:56:32.478Z,7.03
2022-08-03T18:59:10.859Z,6.15
2022-08-03T19:01:58.026Z,7.30
2022-08-03T19:04:35.420Z,7.40
2022-08-03T19:07:08.547Z,6.78
2022-08-03T19:09:48.152Z,7.03
2022-08-03T19:12:30.789Z,6.78
2022-08-03T19:15:12.780Z,6.70
2022-08-03T19:17:52.730Z,6.22
2022-08-03T19:20:26.517Z,6.38
2022-08-03T19:23:00.411Z,7.68
2022-08-03T19:25:35.124Z,7.63
2022-08-03T19:28:07.220Z,7.65
2022-08-03T19:30:39.889Z,7.88
2022-08-03T19:33:11.458Z,7.63
2022-08-03T19:35:51.806Z,7.47
2022-08-03T19:38:27.543Z,7.70
2022-08-03T19:41:03.244Z,8.65
2022-08-03T19:43:49.499Z,8.75
2022-08-03T19:46:30.505Z,8.73
2022-08-03T19:49:14.595Z,8.27
2022-08-03T19:52:01.483Z,8.90
2022-08-03T19:54:52.817Z,8.85
2022-08-03T19:57:25.765Z,8.43
2022-08-03T19:59:56.772Z,8.63
2022-08-03T20:02:29.705Z,8.90
2022-08-03T20:04:59.988Z,8.40
2022-08-03T20:07:33.005Z,8.05
2022-08-03T20:10:05.321Z,8.32
2022-08-03T20:12:39.243Z,8.35
2022-08-03T20:15:10.632Z,8.20
2022-08-03T20:17:55.343Z,8.43
2022-08-03T20:20:29.857Z,8.23
2022-08-03T20:23:04.035Z,8.05
2022-08-03T20:25:48.787Z,9.02
2022-08-03T20:28:36.171Z,8.07
2022-08-03T20:31:32.602Z,8.52
2022-08-03T20:34:06.312Z,8.23
2022-08-03T20:36:35.060Z,8.80
2022-08-03T20:39:07.540Z,9.13
2022-08-03T20:41:37.044Z,8.15
2022-08-03T20:44:07.077Z,8.32
2022-08-03T20:46:46.714Z,8.57
2022-08-03T20:49:25.313Z,8.45
2022-08-03T20:51:55.320Z,8.80
2022-08-03T20:54:29.469Z,8.15
2022-08-03T20:57:04.174Z,8.45
2022-08-03T20:59:47.671Z,8.82
2022-08-03T21:02:29.117Z,9.10
2022-08-03T21:05:03.424Z,8.85
2022-08-03T21:08:03.703Z,8.90
2022-08-03T21:10:38.242Z,9.68
2022-08-03T21:13:18.550Z,9.50
2022-08-03T21:16:11.893Z,9.98
2022-08-03T21:18:47.209Z,9.35
2022-08-03T21:21:20.013Z,10.00
2022-08-03T21:23:53.858Z,9.85
2022-08-03T21:26:28.556Z,10.18
2022-08-03T21:28:58.522Z,10.60
2022-08-03T21:31:28.094Z,10.88
2022-08-03T21:33:59.487Z,10.82
2022-08-03T21:36:32.167Z,11.07
2022-08-03T21:39:01.964Z,10.80
2022-08-03T21:41:33.663Z,10.77
2022-08-03T21:44:05.152Z,10.43
2022-08-03T21:46:39.313Z,11.85
2022-08-03T21:50:07.621Z,11.10
2022-08-03T21:52:06.759Z,11.13
2022-08-03T21:54:38.550Z,11.07
2022-08-03T21:57:20.024Z,11.68
2022-08-03T21:59:56.652Z,11.00
2022-08-03T22:02:31.518Z,11.02
2022-08-03T22:05:05.152Z,11.25
2022-08-03T22:07:35.943Z,10.90
2022-08-03T22:10:07.727Z,11.23
2022-08-03T22:12:38.678Z,9.82
2022-08-03T22:15:11.713Z,11.27
2022-08-03T22:17:53.655Z,9.95
2022-08-03T22:20:24.926Z,9.27
2022-08-03T22:22:57.711Z,9.98
2022-08-03T22:25:31.572Z,9.73
2022-08-03T22:28:05.162Z,9.50
2022-08-03T22:30:34.613Z,9.27
2022-08-03T22:33:11.723Z,8.43
2022-08-03T22:35:47.828Z,8.98
2022-08-03T22:38:18.733Z,8.93
2022-08-03T22:40:51.157Z,8.80
2022-08-03T22:43:25.683Z,8.48
2022-08-03T22:46:10.239Z,8.00
2022-08-03T22:48:41.955Z,7.82
2022-08-03T22:51:11.489Z,7.57
2022-08-03T22:53:41.562Z,7.53
2022-08-03T22:56:11.027Z,7.30
2022-08-03T22:58:40.970Z,7.43
2022-08-03T23:01:13.714Z,7.43
2022-08-03T23:03:58.693Z,7.60
2022-08-03T23:06:36.558Z,7.70
2022-08-03T23:09:09.303Z,7.75
2022-08-03T23:11:45.533Z,7.75
2022-08-03T23:14:20.409Z,7.05
2022-08-03T23:16:51.989Z,7.53
2022-08-03T23:19:25.133Z,7.95
2022-08-03T23:22:02.400Z,7.32
2022-08-03T23:24:36.892Z,8.55
2022-08-03T23:27:08.263Z,8.07
2022-08-03T23:29:43.282Z,8.35
2022-08-03T23:32:13.997Z,7.80
2022-08-03T23:35:06.091Z,9.20
2022-08-03T23:38:12.177Z,7.97
2022-08-03T23:40:30.979Z,8.32
2022-08-03T23:43:02.169Z,8.13
2022-08-03T23:45:37.530Z,8.07
2022-08-03T23:48:06.996Z,8.32
2022-08-03T23:50:45.727Z,8.90
2022-08-03T23:53:22.657Z,8.25
2022-08-03T23:56:13.949Z,8.45
2022-08-03T23:58:57.916Z,8.73
